createdAt,value
2022-11-18T00:03:24.036Z,17.1
2022-11-18T00:08:24.048Z,16.9
2022-11-18T00:13:24.024Z,17.4
2022-11-18T00:18:24.096Z,16.9
2022-11-18T00:23:24.044Z,16.9
2022-11-18T00:28:24.029Z,16.4
2022-11-18T00:33:24.165Z,16.4
2022-11-18T00:38:24.105Z,16.4
2022-11-18T00:43:24.161Z,15.7
2022-11-18T00:48:24.058Z,15.7
2022-11-18T00:53:24.064Z,15.2
2022-11-18T00:58:24.074Z,15.1
2022-11-18T01:03:24.051Z,15.1
2022-11-18T01:08:24.049Z,15.1
2022-11-18T01:13:24.072Z,14.4
2022-11-18T01:18:24.342Z,14
2022-11-18T01:23:24.235Z,12.9
2022-11-18T01:28:27.137Z,11.5
2022-11-18T01:33:24.145Z,10.3
2022-11-18T01:38:24.190Z,10.3
2022-11-18T01:43:24.317Z,10.3
2022-11-18T01:48:24.141Z,10.3
2022-11-18T01:53:24.143Z,10.5
2022-11-18T01:58:24.168Z,10.5
2022-11-18T02:03:24.140Z,10.8
2022-11-18T02:08:24.139Z,10.9
2022-11-18T02:13:24.372Z,11
2022-11-18T02:18:24.237Z,11
2022-11-18T02:23:24.255Z,11.2
2022-11-18T02:28:24.246Z,11.2
2022-11-18T02:33:24.292Z,11.2
2022-11-18T02:38:24.185Z,11.1
2022-11-18T02:43:24.109Z,11.1
2022-11-18T02:48:24.122Z,11.3
2022-11-18T02:53:24.205Z,11.3
2022-11-18T02:58:24.186Z,11.1
2022-11-18T03:03:24.101Z,11.1
2022-11-18T03:08:24.179Z,10.9
2022-11-18T03:13:24.124Z,10.9
2022-11-18T03:18:24.138Z,10.9
2022-11-18T03:23:24.139Z,10.9
2022-11-18T03:28:24.121Z,10.9
2022-11-18T03:33:24.097Z,10.7
2022-11-18T03:38:24.198Z,10.7
2022-11-18T03:43:24.085Z,10.6
2022-11-18T03:48:24.099Z,10.6
2022-11-18T03:58:24.260Z,9.2
2022-11-18T04:03:24.073Z,10.6
2022-11-18T04:08:24.107Z,12
2022-11-18T04:13:24.145Z,11.5
2022-11-18T04:18:24.065Z,11
2022-11-18T04:23:24.103Z,10.45
2022-11-18T04:28:24.090Z,10.2
2022-11-18T04:33:24.055Z,10.3
2022-11-18T04:38:24.079Z,10.2
2022-11-18T04:43:24.081Z,10.2
2022-11-18T04:48:24.064Z,10
2022-11-18T04:53:24.090Z,10
2022-11-18T04:58:24.157Z,10
2022-11-18T05:03:24.075Z,10
2022-11-18T05:08:24.113Z,10
2022-11-18T05:13:24.111Z,10
2022-11-18T05:18:24.114Z,10
2022-11-18T05:23:24.110Z,9.5
2022-11-18T05:28:24.127Z,10
2022-11-18T05:33:24.184Z,10
2022-11-18T05:38:24.140Z,10
2022-11-18T05:43:24.198Z,10
2022-11-18T05:48:25.243Z,10.1
2022-11-18T05:53:25.278Z,11.4
2022-11-18T05:58:28.485Z,13.6
2022-11-18T06:23:25.394Z,13.2
2022-11-18T06:28:25.102Z,13.15
2022-11-18T06:33:25.133Z,13.1
2022-11-18T06:38:25.123Z,13.15
2022-11-18T06:43:25.111Z,13.2
2022-11-18T06:48:25.097Z,14.45
2022-11-18T06:53:25.106Z,14.5
2022-11-18T06:58:25.152Z,14.5
2022-11-18T07:03:25.112Z,15.7
2022-11-18T07:08:25.107Z,15.7
2022-11-18T07:13:25.155Z,15.7
2022-11-18T07:18:25.130Z,15.1
2022-11-18T07:23:25.157Z,14.8
2022-11-18T07:28:25.165Z,14.8
2022-11-18T07:33:25.113Z,14.8
2022-11-18T07:38:25.169Z,14.6
2022-11-18T07:43:25.108Z,13.6
2022-11-18T07:48:25.112Z,13.6
2022-11-18T07:53:25.094Z,13.6
2022-11-18T07:58:25.125Z,13.3
2022-11-18T08:03:25.076Z,13.3
2022-11-18T08:08:25.121Z,13.3
2022-11-18T08:13:25.119Z,12.8
2022-11-18T08:18:25.144Z,12.8
2022-11-18T08:23:33.236Z,10.3
2022-11-18T08:28:25.182Z,8.6
2022-11-18T08:33:25.116Z,8.4
2022-11-18T08:38:25.147Z,8.4
2022-11-18T08:43:25.144Z,8.3
2022-11-18T08:48:25.083Z,8
2022-11-18T08:53:25.141Z,7.8
2022-11-18T08:58:25.131Z,7.5
2022-11-18T09:03:25.155Z,6.8
2022-11-18T09:08:25.131Z,6.6
2022-11-18T09:13:53.577Z,6.5
2022-11-18T09:18:25.220Z,6
2022-11-18T09:23:25.185Z,5.9
2022-11-18T09:28:25.164Z,5.8
2022-11-18T09:33:25.124Z,5.8
2022-11-18T09:38:25.221Z,5.8
2022-11-18T09:43:25.169Z,5.8
2022-11-18T09:48:25.130Z,5.8
2022-11-18T09:53:25.118Z,6.6
2022-11-18T09:58:25.136Z,6.6
2022-11-18T10:03:25.140Z,6.7
2022-11-18T10:08:25.108Z,6.7
2022-11-18T10:13:25.160Z,6.6
2022-11-18T10:18:58.245Z,6.3
2022-11-18T10:23:25.183Z,6.3
2022-11-18T10:28:25.118Z,6.2
2022-11-18T10:33:25.140Z,6.2
2022-11-18T10:38:25.125Z,6.1
2022-11-18T10:43:25.092Z,6.1
2022-11-18T10:48:25.156Z,6.1
2022-11-18T10:53:25.148Z,6
2022-11-18T10:58:25.176Z,5.8
2022-11-18T11:03:25.141Z,5.7
2022-11-18T11:08:36.144Z,5.4
2022-11-18T11:13:25.181Z,4.9
2022-11-18T11:18:25.243Z,4.8
2022-11-18T11:23:25.199Z,4.7
2022-11-18T11:28:25.256Z,4.6
2022-11-18T11:33:25.248Z,4.3
2022-11-18T11:38:25.169Z,3.7
2022-11-18T11:43:25.312Z,3.6
2022-11-18T11:48:25.272Z,3.4
2022-11-18T11:53:25.156Z,3.4
2022-11-18T11:58:25.167Z,3.5
2022-11-18T12:03:25.167Z,3.4
2022-11-18T12:08:25.124Z,3.4
2022-11-18T12:13:25.164Z,3.3
2022-11-18T12:18:25.160Z,3.4
2022-11-18T12:23:25.242Z,3.3
2022-11-18T12:28:25.166Z,3.3
2022-11-18T12:33:25.183Z,3.3
2022-11-18T12:38:25.206Z,3.5
2022-11-18T12:43:25.265Z,3.5
2022-11-18T12:48:28.187Z,3.5
2022-11-18T12:53:25.162Z,3.5
2022-11-18T12:58:25.171Z,3.5
2022-11-18T13:03:25.156Z,3.1
2022-11-18T13:08:25.187Z,3.1
2022-11-18T13:13:25.151Z,3.1
2022-11-18T13:18:25.152Z,2.9
2022-11-18T13:23:25.270Z,2.4
2022-11-18T13:28:25.223Z,2.4
2022-11-18T13:33:25.115Z,2.4
2022-11-18T13:38:29.176Z,2.3
2022-11-18T13:43:25.210Z,2.3
2022-11-18T13:48:25.166Z,2.3
2022-11-18T13:53:26.974Z,2.2
2022-11-18T13:58:25.163Z,2.2
2022-11-18T14:03:25.187Z,2.2
2022-11-18T14:08:25.206Z,2.2
2022-11-18T14:13:25.164Z,2.2
2022-11-18T14:18:25.207Z,2.3
2022-11-18T14:23:25.262Z,2.3
2022-11-18T14:28:25.220Z,2.3
2022-11-18T14:33:25.220Z,2.5
2022-11-18T14:38:48.024Z,4.1
2022-11-18T14:43:25.177Z,4.1
2022-11-18T14:48:32.559Z,4.1
2022-11-18T14:53:25.188Z,3.3
2022-11-18T14:58:25.278Z,3.3
2022-11-18T15:03:25.268Z,3.3
2022-11-18T15:08:25.276Z,4.1
2022-11-18T15:13:25.254Z,4.1
2022-11-18T15:18:25.352Z,4.6
2022-11-18T15:23:31.237Z,4.6
2022-11-18T15:28:25.202Z,5
2022-11-18T15:33:25.287Z,5.2
2022-11-18T15:38:25.195Z,5.2
2022-11-18T15:43:25.158Z,5
2022-11-18T15:48:25.237Z,5.2
2022-11-18T15:53:25.197Z,5.6
2022-11-18T15:58:25.143Z,5.6
2022-11-18T16:03:28.271Z,5.6
2022-11-18T16:08:25.190Z,5.9
2022-11-18T16:13:25.198Z,6.6
2022-11-18T16:18:25.205Z,6.6
2022-11-18T16:23:25.310Z,7.4
2022-11-18T16:28:25.192Z,7.4
2022-11-18T16:33:25.181Z,7.4
2022-11-18T16:38:25.184Z,10.3
2022-11-18T16:43:25.182Z,10.3
2022-11-18T16:48:25.164Z,10.7
2022-11-18T16:53:25.216Z,10.9
2022-11-18T16:58:25.275Z,11.1
2022-11-18T17:03:25.315Z,10.8
2022-11-18T17:08:25.219Z,11.1
2022-11-18T17:13:25.152Z,11.3
2022-11-18T17:18:25.187Z,11.6
2022-11-18T17:23:25.247Z,11.7
2022-11-18T17:28:25.321Z,11.7
2022-11-18T17:33:25.205Z,12
2022-11-18T17:38:25.305Z,12.5
2022-11-18T17:43:25.233Z,12.5
2022-11-18T17:48:25.176Z,12.9
2022-11-18T17:53:25.250Z,13.2
2022-11-18T17:58:25.157Z,14.2
2022-11-18T18:03:25.218Z,14.2
2022-11-18T18:08:25.224Z,14.3
2022-11-18T18:13:25.183Z,14.2
2022-11-18T18:18:25.146Z,14.2
2022-11-18T18:23:25.270Z,14.3
2022-11-18T18:28:25.192Z,14.3
2022-11-18T18:33:25.245Z,14.2
2022-11-18T18:38:25.176Z,14.2
2022-11-18T18:43:25.199Z,14
2022-11-18T18:48:25.187Z,13.8
2022-11-18T18:53:25.201Z,12.9
2022-11-18T18:58:25.163Z,12.9
2022-11-18T19:03:25.193Z,12.9
2022-11-18T19:08:25.372Z,12.8
2022-11-18T19:13:25.158Z,12.8
2022-11-18T19:18:25.279Z,12.7
2022-11-18T19:23:25.253Z,13.1
2022-11-18T19:28:25.236Z,13.1
2022-11-18T19:33:25.184Z,12.5
2022-11-18T19:38:25.158Z,12.4
2022-11-18T19:43:25.198Z,11.5
2022-11-18T19:48:25.200Z,10.7
2022-11-18T19:53:25.198Z,9.2
2022-11-18T19:58:25.150Z,7.2
2022-11-18T20:03:25.196Z,7.2
2022-11-18T20:08:25.241Z,7.2
2022-11-18T20:13:25.191Z,7.2
2022-11-18T20:18:25.237Z,7.2
2022-11-18T20:23:25.284Z,8.9
2022-11-18T20:28:25.154Z,8.9
2022-11-18T20:33:25.213Z,8.9
2022-11-18T20:38:25.303Z,8.9
2022-11-18T20:43:25.269Z,8.3
2022-11-18T20:48:25.228Z,7.5
2022-11-18T20:53:25.233Z,6.2
2022-11-18T20:58:25.215Z,5.7
2022-11-18T21:03:25.286Z,5.7
2022-11-18T21:08:25.211Z,5.7
2022-11-18T21:13:25.350Z,5.6
2022-11-18T21:18:25.226Z,5.4
2022-11-18T21:23:25.273Z,5.4
2022-11-18T21:28:25.200Z,5.5
2022-11-18T21:33:25.242Z,5.5
2022-11-18T21:38:25.209Z,5.5
2022-11-18T21:43:58.183Z,5.5
2022-11-18T21:48:25.174Z,7.3
2022-11-18T21:53:25.201Z,8.9
2022-11-18T21:58:25.210Z,8.9
2022-11-18T22:03:25.211Z,8.9
2022-11-18T22:08:25.175Z,8.9
2022-11-18T22:13:25.240Z,7.6
2022-11-18T22:28:25.563Z,7.9
2022-11-18T22:33:25.291Z,6.05
2022-11-18T22:38:25.253Z,4.4
2022-11-18T22:43:25.230Z,4.3
2022-11-18T22:48:25.255Z,4.2
2022-11-18T22:53:25.241Z,4.15
2022-11-18T22:58:25.252Z,4.2
2022-11-18T23:03:25.294Z,4.1
2022-11-18T23:08:25.327Z,4.1
2022-11-18T23:13:25.247Z,4.1
2022-11-18T23:18:25.298Z,4.1
2022-11-18T23:23:50.852Z,4.1
2022-11-18T23:28:25.239Z,4.1
2022-11-18T23:33:25.217Z,4.1
2022-11-18T23:38:25.244Z,4.1
2022-11-18T23:43:25.211Z,4.1
2022-11-18T23:48:25.220Z,4.2
2022-11-18T23:53:25.210Z,4.5
2022-11-18T23:58:25.219Z,4.5
